sensor_id;sensor_type;location;lat;lon;timestamp;temperature;humidity
25991;DHT22;13779;-33.886;151.198;2022-08-01T00:02:04;15.50;99.90
25991;DHT22;13779;-33.886;151.198;2022-08-01T00:04:35;15.60;99.90
25991;DHT22;13779;-33.886;151.198;2022-08-01T00:07:06;15.80;99.90
25991;DHT22;13779;-33.886;151.198;2022-08-01T00:09:37;15.80;99.90
25991;DHT22;13779;-33.886;151.198;2022-08-01T00:12:07;15.90;99.90
25991;DHT22;13779;-33.886;151.198;2022-08-01T00:14:38;16.00;99.90
25991;DHT22;13779;-33.886;151.198;2022-08-01T00:17:08;16.00;99.90
25991;DHT22;13779;-33.886;151.198;2022-08-01T00:19:39;16.10;99.90
25991;DHT22;13779;-33.886;151.198;2022-08-01T00:22:09;16.20;99.90
25991;DHT22;13779;-33.886;151.198;2022-08-01T00:24:40;16.30;99.90
25991;DHT22;13779;-33.886;151.198;2022-08-01T00:27:10;16.30;99.90
25991;DHT22;13779;-33.886;151.198;2022-08-01T00:29:41;16.40;99.90
25991;DHT22;13779;-33.886;151.198;2022-08-01T00:32:32;16.50;99.90
25991;DHT22;13779;-33.886;151.198;2022-08-01T00:35:03;16.60;99.90
25991;DHT22;13779;-33.886;151.198;2022-08-01T00:37:33;16.70;99.90
25991;DHT22;13779;-33.886;151.198;2022-08-01T00:40:04;16.70;99.90
25991;DHT22;13779;-33.886;151.198;2022-08-01T00:42:34;16.70;99.90
25991;DHT22;13779;-33.886;151.198;2022-08-01T00:45:11;16.90;99.90
25991;DHT22;13779;-33.886;151.198;2022-08-01T00:47:41;16.90;99.90
25991;DHT22;13779;-33.886;151.198;2022-08-01T00:50:12;16.90;99.90
25991;DHT22;13779;-33.886;151.198;2022-08-01T00:52:44;17.00;99.90
25991;DHT22;13779;-33.886;151.198;2022-08-01T00:55:19;17.10;99.90
25991;DHT22;13779;-33.886;151.198;2022-08-01T00:57:53;17.10;99.90
25991;DHT22;13779;-33.886;151.198;2022-08-01T01:00:29;17.20;99.90
25991;DHT22;13779;-33.886;151.198;2022-08-01T01:02:59;17.20;99.90
25991;DHT22;13779;-33.886;151.198;2022-08-01T01:05:36;17.30;99.90
25991;DHT22;13779;-33.886;151.198;2022-08-01T01:08:19;17.40;99.90
25991;DHT22;13779;-33.886;151.198;2022-08-01T01:11:01;17.50;99.90
25991;DHT22;13779;-33.886;151.198;2022-08-01T01:13:41;17.60;99.90
25991;DHT22;13779;-33.886;151.198;2022-08-01T01:16:19;17.70;99.90
25991;DHT22;13779;-33.886;151.198;2022-08-01T01:18:57;17.80;99.90
25991;DHT22;13779;-33.886;151.198;2022-08-01T01:30:07;17.90;99.90
25991;DHT22;13779;-33.886;151.198;2022-08-01T01:32:46;18.00;99.90
25991;DHT22;13779;-33.886;151.198;2022-08-01T01:35:24;17.90;99.90
25991;DHT22;13779;-33.886;151.198;2022-08-01T01:38:22;18.00;99.90
25991;DHT22;13779;-33.886;151.198;2022-08-01T01:40:52;17.90;99.90
25991;DHT22;13779;-33.886;151.198;2022-08-01T01:43:24;18.00;99.90
25991;DHT22;13779;-33.886;151.198;2022-08-01T01:45:56;18.10;99.90
25991;DHT22;13779;-33.886;151.198;2022-08-01T01:48:28;18.10;99.90
25991;DHT22;13779;-33.886;151.198;2022-08-01T01:51:00;18.20;99.90
25991;DHT22;13779;-33.886;151.198;2022-08-01T01:53:33;18.30;99.90
25991;DHT22;13779;-33.886;151.198;2022-08-01T01:56:04;18.30;99.90
25991;DHT22;13779;-33.886;151.198;2022-08-01T01:58:36;18.30;99.90
25991;DHT22;13779;-33.886;151.198;2022-08-01T02:01:09;18.40;99.90
25991;DHT22;13779;-33.886;151.198;2022-08-01T02:03:43;18.60;99.90
25991;DHT22;13779;-33.886;151.198;2022-08-01T02:06:14;18.60;99.90
25991;DHT22;13779;-33.886;151.198;2022-08-01T02:08:46;18.60;99.90
25991;DHT22;13779;-33.886;151.198;2022-08-01T02:11:21;18.60;99.90
25991;DHT22;13779;-33.886;151.198;2022-08-01T02:14:08;18.60;99.90
25991;DHT22;13779;-33.886;151.198;2022-08-01T02:16:41;18.80;99.90
25991;DHT22;13779;-33.886;151.198;2022-08-01T02:19:13;18.70;99.90
25991;DHT22;13779;-33.886;151.198;2022-08-01T02:21:55;18.80;99.90
25991;DHT22;13779;-33.886;151.198;2022-08-01T02:27:01;18.80;99.90
25991;DHT22;13779;-33.886;151.198;2022-08-01T02:32:38;18.80;99.90
25991;DHT22;13779;-33.886;151.198;2022-08-01T02:35:25;18.90;99.90
25991;DHT22;13779;-33.886;151.198;2022-08-01T02:37:58;18.90;99.90
25991;DHT22;13779;-33.886;151.198;2022-08-01T02:40:32;18.70;99.90
25991;DHT22;13779;-33.886;151.198;2022-08-01T02:43:05;18.70;99.90
25991;DHT22;13779;-33.886;151.198;2022-08-01T02:45:41;18.80;99.90
25991;DHT22;13779;-33.886;151.198;2022-08-01T02:48:14;18.90;99.90
25991;DHT22;13779;-33.886;151.198;2022-08-01T02:50:49;19.10;99.90
25991;DHT22;13779;-33.886;151.198;2022-08-01T02:53:24;19.20;99.90
25991;DHT22;13779;-33.886;151.198;2022-08-01T02:56:06;19.30;99.90
25991;DHT22;13779;-33.886;151.198;2022-08-01T02:58:39;19.40;99.90
25991;DHT22;13779;-33.886;151.198;2022-08-01T03:01:11;19.50;99.90
25991;DHT22;13779;-33.886;151.198;2022-08-01T03:03:43;19.60;99.90
25991;DHT22;13779;-33.886;151.198;2022-08-01T03:06:15;19.70;99.90
25991;DHT22;13779;-33.886;151.198;2022-08-01T03:08:47;19.80;99.90
25991;DHT22;13779;-33.886;151.198;2022-08-01T03:11:18;19.80;99.90
25991;DHT22;13779;-33.886;151.198;2022-08-01T03:13:49;19.80;99.90
25991;DHT22;13779;-33.886;151.198;2022-08-01T03:16:20;20.00;99.90
25991;DHT22;13779;-33.886;151.198;2022-08-01T03:18:53;19.80;99.90
25991;DHT22;13779;-33.886;151.198;2022-08-01T03:21:26;19.50;99.90
25991;DHT22;13779;-33.886;151.198;2022-08-01T03:23:59;19.30;99.90
25991;DHT22;13779;-33.886;151.198;2022-08-01T03:26:33;19.20;99.90
25991;DHT22;13779;-33.886;151.198;2022-08-01T03:29:16;19.00;99.90
25991;DHT22;13779;-33.886;151.198;2022-08-01T03:31:48;18.80;99.90
25991;DHT22;13779;-33.886;151.198;2022-08-01T03:34:20;18.60;99.90
25991;DHT22;13779;-33.886;151.198;2022-08-01T03:37:07;18.60;99.90
25991;DHT22;13779;-33.886;151.198;2022-08-01T03:39:47;18.70;99.90
25991;DHT22;13779;-33.886;151.198;2022-08-01T03:42:23;19.30;99.90
25991;DHT22;13779;-33.886;151.198;2022-08-01T03:44:59;19.50;99.90
25991;DHT22;13779;-33.886;151.198;2022-08-01T03:47:35;19.60;99.90
25991;DHT22;13779;-33.886;151.198;2022-08-01T03:50:08;19.80;99.90
25991;DHT22;13779;-33.886;151.198;2022-08-01T03:52:43;20.30;99.90
25991;DHT22;13779;-33.886;151.198;2022-08-01T03:55:15;20.80;99.90
25991;DHT22;13779;-33.886;151.198;2022-08-01T03:57:47;21.00;99.90
25991;DHT22;13779;-33.886;151.198;2022-08-01T04:00:18;21.10;99.90
25991;DHT22;13779;-33.886;151.198;2022-08-01T04:02:48;21.10;99.90
25991;DHT22;13779;-33.886;151.198;2022-08-01T04:05:19;21.20;99.90
25991;DHT22;13779;-33.886;151.198;2022-08-01T04:07:50;21.30;99.90
25991;DHT22;13779;-33.886;151.198;2022-08-01T04:10:27;21.40;99.90
25991;DHT22;13779;-33.886;151.198;2022-08-01T04:12:57;21.60;99.20
25991;DHT22;13779;-33.886;151.198;2022-08-01T04:15:28;21.80;98.20
25991;DHT22;13779;-33.886;151.198;2022-08-01T04:17:58;21.80;97.10
25991;DHT22;13779;-33.886;151.198;2022-08-01T04:20:28;21.70;95.90
25991;DHT22;13779;-33.886;151.198;2022-08-01T04:22:58;21.70;94.90
25991;DHT22;13779;-33.886;151.198;2022-08-01T04:25:33;21.70;93.60
25991;DHT22;13779;-33.886;151.198;2022-08-01T04:28:04;21.80;92.80
25991;DHT22;13779;-33.886;151.198;2022-08-01T04:30:38;21.60;92.40
25991;DHT22;13779;-33.886;151.198;2022-08-01T04:33:10;21.90;91.70
25991;DHT22;13779;-33.886;151.198;2022-08-01T04:35:44;21.90;91.20
25991;DHT22;13779;-33.886;151.198;2022-08-01T04:38:32;22.00;91.10
25991;DHT22;13779;-33.886;151.198;2022-08-01T04:41:04;22.10;89.10
25991;DHT22;13779;-33.886;151.198;2022-08-01T04:43:37;22.20;88.00
25991;DHT22;13779;-33.886;151.198;2022-08-01T04:46:10;22.20;86.40
25991;DHT22;13779;-33.886;151.198;2022-08-01T04:48:41;22.00;86.00
25991;DHT22;13779;-33.886;151.198;2022-08-01T04:51:13;21.80;83.60
25991;DHT22;13779;-33.886;151.198;2022-08-01T04:53:47;21.70;82.80
25991;DHT22;13779;-33.886;151.198;2022-08-01T04:56:19;21.80;82.40
25991;DHT22;13779;-33.886;151.198;2022-08-01T04:58:50;21.80;83.20
25991;DHT22;13779;-33.886;151.198;2022-08-01T05:01:42;21.80;84.20
25991;DHT22;13779;-33.886;151.198;2022-08-01T05:04:13;21.80;83.00
25991;DHT22;13779;-33.886;151.198;2022-08-01T05:06:43;21.90;77.90
25991;DHT22;13779;-33.886;151.198;2022-08-01T05:09:14;21.70;78.70
25991;DHT22;13779;-33.886;151.198;2022-08-01T05:11:45;21.40;79.70
25991;DHT22;13779;-33.886;151.198;2022-08-01T05:14:16;21.10;79.90
25991;DHT22;13779;-33.886;151.198;2022-08-01T05:16:46;21.10;80.00
25991;DHT22;13779;-33.886;151.198;2022-08-01T05:19:17;21.20;80.50
25991;DHT22;13779;-33.886;151.198;2022-08-01T05:21:48;21.10;80.40
25991;DHT22;13779;-33.886;151.198;2022-08-01T05:24:18;21.10;81.10
25991;DHT22;13779;-33.886;151.198;2022-08-01T05:26:49;20.90;82.60
25991;DHT22;13779;-33.886;151.198;2022-08-01T05:29:20;20.70;82.70
25991;DHT22;13779;-33.886;151.198;2022-08-01T05:31:50;20.50;83.50
25991;DHT22;13779;-33.886;151.198;2022-08-01T05:34:21;20.20;83.90
25991;DHT22;13779;-33.886;151.198;2022-08-01T05:36:52;20.10;83.60
25991;DHT22;13779;-33.886;151.198;2022-08-01T05:39:24;19.90;84.80
25991;DHT22;13779;-33.886;151.198;2022-08-01T05:41:55;19.80;84.10
25991;DHT22;13779;-33.886;151.198;2022-08-01T05:44:27;19.60;86.60
25991;DHT22;13779;-33.886;151.198;2022-08-01T05:46:57;19.50;87.30
25991;DHT22;13779;-33.886;151.198;2022-08-01T05:49:28;19.40;87.00
25991;DHT22;13779;-33.886;151.198;2022-08-01T05:51:58;19.40;87.10
25991;DHT22;13779;-33.886;151.198;2022-08-01T05:54:32;19.30;87.10
25991;DHT22;13779;-33.886;151.198;2022-08-01T05:57:03;19.30;86.50
25991;DHT22;13779;-33.886;151.198;2022-08-01T05:59:34;19.30;86.20
25991;DHT22;13779;-33.886;151.198;2022-08-01T06:02:05;19.20;86.50
25991;DHT22;13779;-33.886;151.198;2022-08-01T06:04:35;19.20;87.70
25991;DHT22;13779;-33.886;151.198;2022-08-01T06:07:06;19.10;87.50
25991;DHT22;13779;-33.886;151.198;2022-08-01T06:09:36;19.10;86.90
25991;DHT22;13779;-33.886;151.198;2022-08-01T06:12:07;19.10;87.70
25991;DHT22;13779;-33.886;151.198;2022-08-01T06:14:38;19.00;85.30
25991;DHT22;13779;-33.886;151.198;2022-08-01T06:17:09;19.00;84.90
25991;DHT22;13779;-33.886;151.198;2022-08-01T06:19:40;19.00;85.00
25991;DHT22;13779;-33.886;151.198;2022-08-01T06:22:11;18.90;84.50
25991;DHT22;13779;-33.886;151.198;2022-08-01T06:24:41;18.80;84.50
25991;DHT22;13779;-33.886;151.198;2022-08-01T06:27:12;18.80;83.80
25991;DHT22;13779;-33.886;151.198;2022-08-01T06:29:49;18.70;84.30
25991;DHT22;13779;-33.886;151.198;2022-08-01T06:32:23;18.70;84.50
25991;DHT22;13779;-33.886;151.198;2022-08-01T06:34:55;18.70;84.30
25991;DHT22;13779;-33.886;151.198;2022-08-01T06:37:29;18.60;84.90
25991;DHT22;13779;-33.886;151.198;2022-08-01T06:40:04;18.60;84.30
25991;DHT22;13779;-33.886;151.198;2022-08-01T06:42:36;18.50;85.60
25991;DHT22;13779;-33.886;151.198;2022-08-01T06:45:11;18.40;86.00
25991;DHT22;13779;-33.886;151.198;2022-08-01T06:47:44;18.40;86.20
25991;DHT22;13779;-33.886;151.198;2022-08-01T06:50:18;18.40;86.90
25991;DHT22;13779;-33.886;151.198;2022-08-01T06:52:51;18.30;88.10
25991;DHT22;13779;-33.886;151.198;2022-08-01T06:55:22;18.20;88.90
25991;DHT22;13779;-33.886;151.198;2022-08-01T06:57:53;18.20;89.70
25991;DHT22;13779;-33.886;151.198;2022-08-01T07:00:25;18.10;90.00
25991;DHT22;13779;-33.886;151.198;2022-08-01T07:02:57;18.10;90.00
25991;DHT22;13779;-33.886;151.198;2022-08-01T07:05:29;18.00;89.90
25991;DHT22;13779;-33.886;151.198;2022-08-01T07:08:01;18.00;90.10
25991;DHT22;13779;-33.886;151.198;2022-08-01T07:10:31;17.90;89.80
25991;DHT22;13779;-33.886;151.198;2022-08-01T07:13:02;17.90;90.20
25991;DHT22;13779;-33.886;151.198;2022-08-01T07:15:32;17.90;90.10
25991;DHT22;13779;-33.886;151.198;2022-08-01T07:18:03;17.80;90.30
25991;DHT22;13779;-33.886;151.198;2022-08-01T07:20:34;17.70;90.60
25991;DHT22;13779;-33.886;151.198;2022-08-01T07:23:09;17.60;90.60
25991;DHT22;13779;-33.886;151.198;2022-08-01T07:25:40;17.60;90.80
25991;DHT22;13779;-33.886;151.198;2022-08-01T07:28:13;17.60;91.00
25991;DHT22;13779;-33.886;151.198;2022-08-01T07:30:44;17.50;91.40
25991;DHT22;13779;-33.886;151.198;2022-08-01T07:33:15;17.50;91.80
25991;DHT22;13779;-33.886;151.198;2022-08-01T07:35:45;17.50;92.30
25991;DHT22;13779;-33.886;151.198;2022-08-01T07:38:16;17.40;92.70
25991;DHT22;13779;-33.886;151.198;2022-08-01T07:40:46;17.40;93.00
25991;DHT22;13779;-33.886;151.198;2022-08-01T07:43:17;17.30;93.30
25991;DHT22;13779;-33.886;151.198;2022-08-01T07:45:47;17.20;93.70
25991;DHT22;13779;-33.886;151.198;2022-08-01T07:48:18;17.20;93.80
25991;DHT22;13779;-33.886;151.198;2022-08-01T07:50:51;17.20;93.90
25991;DHT22;13779;-33.886;151.198;2022-08-01T07:53:24;17.10;94.10
25991;DHT22;13779;-33.886;151.198;2022-08-01T07:55:55;17.10;94.40
25991;DHT22;13779;-33.886;151.198;2022-08-01T07:58:26;17.10;94.80
25991;DHT22;13779;-33.886;151.198;2022-08-01T08:00:57;17.00;95.20
25991;DHT22;13779;-33.886;151.198;2022-08-01T08:03:27;17.00;95.10
25991;DHT22;13779;-33.886;151.198;2022-08-01T08:05:58;17.00;95.40
25991;DHT22;13779;-33.886;151.198;2022-08-01T08:08:28;17.00;95.70
25991;DHT22;13779;-33.886;151.198;2022-08-01T08:10:59;17.00;96.00
25991;DHT22;13779;-33.886;151.198;2022-08-01T08:13:29;16.90;96.10
25991;DHT22;13779;-33.886;151.198;2022-08-01T08:16:00;16.90;96.30
25991;DHT22;13779;-33.886;151.198;2022-08-01T08:18:30;16.80;96.60
25991;DHT22;13779;-33.886;151.198;2022-08-01T08:21:01;16.80;96.70
25991;DHT22;13779;-33.886;151.198;2022-08-01T08:23:33;16.80;96.90
25991;DHT22;13779;-33.886;151.198;2022-08-01T08:26:21;16.70;97.10
25991;DHT22;13779;-33.886;151.198;2022-08-01T08:28:53;16.70;97.40
25991;DHT22;13779;-33.886;151.198;2022-08-01T08:31:24;16.70;97.70
25991;DHT22;13779;-33.886;151.198;2022-08-01T08:34:15;16.60;98.00
25991;DHT22;13779;-33.886;151.198;2022-08-01T08:36:45;16.60;98.40
25991;DHT22;13779;-33.886;151.198;2022-08-01T08:39:17;16.50;98.70
25991;DHT22;13779;-33.886;151.198;2022-08-01T08:41:48;16.50;99.30
25991;DHT22;13779;-33.886;151.198;2022-08-01T08:44:19;16.50;99.40
25991;DHT22;13779;-33.886;151.198;2022-08-01T08:46:52;16.40;99.90
25991;DHT22;13779;-33.886;151.198;2022-08-01T08:49:27;16.40;99.80
25991;DHT22;13779;-33.886;151.198;2022-08-01T08:52:04;16.40;99.90
25991;DHT22;13779;-33.886;151.198;2022-08-01T08:54:39;16.30;99.90
25991;DHT22;13779;-33.886;151.198;2022-08-01T08:57:12;16.30;99.90
25991;DHT22;13779;-33.886;151.198;2022-08-01T08:59:46;16.30;99.90
25991;DHT22;13779;-33.886;151.198;2022-08-01T09:02:16;16.20;99.90
25991;DHT22;13779;-33.886;151.198;2022-08-01T09:04:49;16.20;99.90
25991;DHT22;13779;-33.886;151.198;2022-08-01T09:07:20;16.10;99.90
25991;DHT22;13779;-33.886;151.198;2022-08-01T09:09:52;16.10;99.90
25991;DHT22;13779;-33.886;151.198;2022-08-01T09:12:23;16.10;99.90
25991;DHT22;13779;-33.886;151.198;2022-08-01T09:14:53;16.10;99.90
25991;DHT22;13779;-33.886;151.198;2022-08-01T09:17:24;16.00;99.90
25991;DHT22;13779;-33.886;151.198;2022-08-01T09:19:55;16.00;99.90
25991;DHT22;13779;-33.886;151.198;2022-08-01T09:22:26;16.00;99.90
25991;DHT22;13779;-33.886;151.198;2022-08-01T09:25:09;15.90;99.90
25991;DHT22;13779;-33.886;151.198;2022-08-01T09:27:40;15.90;99.90
25991;DHT22;13779;-33.886;151.198;2022-08-01T09:30:18;15.90;99.90
25991;DHT22;13779;-33.886;151.198;2022-08-01T09:33:08;15.90;99.90
25991;DHT22;13779;-33.886;151.198;2022-08-01T09:35:55;15.80;99.90
25991;DHT22;13779;-33.886;151.198;2022-08-01T09:38:26;15.80;99.90
25991;DHT22;13779;-33.886;151.198;2022-08-01T09:40:57;15.70;99.90
25991;DHT22;13779;-33.886;151.198;2022-08-01T09:43:30;15.70;99.90
25991;DHT22;13779;-33.886;151.198;2022-08-01T09:46:08;15.60;99.90
25991;DHT22;13779;-33.886;151.198;2022-08-01T09:49:02;15.60;99.90
25991;DHT22;13779;-33.886;151.198;2022-08-01T09:51:37;15.60;99.90
25991;DHT22;13779;-33.886;151.198;2022-08-01T09:54:29;15.50;99.90
25991;DHT22;13779;-33.886;151.198;2022-08-01T09:57:18;15.50;99.90
25991;DHT22;13779;-33.886;151.198;2022-08-01T09:59:51;15.40;99.90
25991;DHT22;13779;-33.886;151.198;2022-08-01T10:02:35;15.40;99.90
25991;DHT22;13779;-33.886;151.198;2022-08-01T10:05:08;15.30;99.90
25991;DHT22;13779;-33.886;151.198;2022-08-01T10:08:00;15.30;99.90
25991;DHT22;13779;-33.886;151.198;2022-08-01T10:10:35;15.20;99.90
25991;DHT22;13779;-33.886;151.198;2022-08-01T10:13:05;15.20;99.90
25991;DHT22;13779;-33.886;151.198;2022-08-01T10:15:38;15.20;99.90
25991;DHT22;13779;-33.886;151.198;2022-08-01T10:18:09;15.10;99.90
25991;DHT22;13779;-33.886;151.198;2022-08-01T10:20:44;15.10;99.90
25991;DHT22;13779;-33.886;151.198;2022-08-01T10:23:16;15.10;99.90
25991;DHT22;13779;-33.886;151.198;2022-08-01T10:25:47;15.20;99.90
25991;DHT22;13779;-33.886;151.198;2022-08-01T10:28:19;15.10;99.90
25991;DHT22;13779;-33.886;151.198;2022-08-01T10:30:51;15.10;99.90
25991;DHT22;13779;-33.886;151.198;2022-08-01T10:33:23;15.00;99.90
25991;DHT22;13779;-33.886;151.198;2022-08-01T10:36:14;14.90;99.90
25991;DHT22;13779;-33.886;151.198;2022-08-01T10:38:47;15.00;99.90
25991;DHT22;13779;-33.886;151.198;2022-08-01T10:41:19;15.00;99.90
25991;DHT22;13779;-33.886;151.198;2022-08-01T10:43:52;15.00;99.90
25991;DHT22;13779;-33.886;151.198;2022-08-01T10:46:22;15.00;99.90
25991;DHT22;13779;-33.886;151.198;2022-08-01T10:49:15;14.90;99.90
25991;DHT22;13779;-33.886;151.198;2022-08-01T10:51:47;14.90;99.90
25991;DHT22;13779;-33.886;151.198;2022-08-01T10:54:18;14.80;99.90
25991;DHT22;13779;-33.886;151.198;2022-08-01T10:56:50;14.70;99.90
25991;DHT22;13779;-33.886;151.198;2022-08-01T10:59:22;14.80;99.90
25991;DHT22;13779;-33.886;151.198;2022-08-01T11:02:00;14.70;99.90
25991;DHT22;13779;-33.886;151.198;2022-08-01T11:07:20;14.70;99.90
25991;DHT22;13779;-33.886;151.198;2022-08-01T11:10:04;14.60;99.90
25991;DHT22;13779;-33.886;151.198;2022-08-01T11:12:40;14.50;99.90
25991;DHT22;13779;-33.886;151.198;2022-08-01T11:17:42;14.40;99.90
25991;DHT22;13779;-33.886;151.198;2022-08-01T11:20:32;14.30;99.90
25991;DHT22;13779;-33.886;151.198;2022-08-01T11:28:25;14.20;99.90
25991;DHT22;13779;-33.886;151.198;2022-08-01T11:36:18;14.10;99.90
25991;DHT22;13779;-33.886;151.198;2022-08-01T11:39:13;14.00;99.90
25991;DHT22;13779;-33.886;151.198;2022-08-01T11:41:46;14.00;99.90
25991;DHT22;13779;-33.886;151.198;2022-08-01T11:44:19;13.80;99.90
25991;DHT22;13779;-33.886;151.198;2022-08-01T11:49:49;13.80;99.90
25991;DHT22;13779;-33.886;151.198;2022-08-01T11:52:28;13.70;99.90
25991;DHT22;13779;-33.886;151.198;2022-08-01T11:55:07;13.60;99.90
25991;DHT22;13779;-33.886;151.198;2022-08-01T11:57:38;13.60;99.90
25991;DHT22;13779;-33.886;151.198;2022-08-01T12:00:13;13.60;99.90
25991;DHT22;13779;-33.886;151.198;2022-08-01T12:02:45;13.60;99.90
25991;DHT22;13779;-33.886;151.198;2022-08-01T12:05:16;13.50;99.90
25991;DHT22;13779;-33.886;151.198;2022-08-01T12:07:52;13.60;99.90
25991;DHT22;13779;-33.886;151.198;2022-08-01T12:10:26;13.70;99.90
25991;DHT22;13779;-33.886;151.198;2022-08-01T12:13:02;13.60;99.90
25991;DHT22;13779;-33.886;151.198;2022-08-01T12:15:38;13.50;99.90
25991;DHT22;13779;-33.886;151.198;2022-08-01T12:18:11;13.50;99.90
25991;DHT22;13779;-33.886;151.198;2022-08-01T12:20:43;13.50;99.90
25991;DHT22;13779;-33.886;151.198;2022-08-01T12:23:23;13.50;99.90
25991;DHT22;13779;-33.886;151.198;2022-08-01T12:25:53;13.40;99.90
25991;DHT22;13779;-33.886;151.198;2022-08-01T12:28:24;13.30;99.90
25991;DHT22;13779;-33.886;151.198;2022-08-01T12:30:54;13.30;99.90
25991;DHT22;13779;-33.886;151.198;2022-08-01T12:33:24;13.30;99.90
25991;DHT22;13779;-33.886;151.198;2022-08-01T12:35:54;13.20;99.90
25991;DHT22;13779;-33.886;151.198;2022-08-01T12:38:27;13.30;99.90
25991;DHT22;13779;-33.886;151.198;2022-08-01T12:40:59;13.20;99.90
25991;DHT22;13779;-33.886;151.198;2022-08-01T12:43:31;13.20;99.90
25991;DHT22;13779;-33.886;151.198;2022-08-01T12:46:03;13.10;99.90
25991;DHT22;13779;-33.886;151.198;2022-08-01T12:48:34;13.10;99.90
25991;DHT22;13779;-33.886;151.198;2022-08-01T12:51:07;13.10;99.90
25991;DHT22;13779;-33.886;151.198;2022-08-01T12:53:39;13.20;99.90
25991;DHT22;13779;-33.886;151.198;2022-08-01T12:56:10;13.20;99.90
25991;DHT22;13779;-33.886;151.198;2022-08-01T12:58:41;13.30;99.90
25991;DHT22;13779;-33.886;151.198;2022-08-01T13:01:12;13.20;99.90
25991;DHT22;13779;-33.886;151.198;2022-08-01T13:03:56;13.20;99.90
25991;DHT22;13779;-33.886;151.198;2022-08-01T13:06:29;13.30;99.90
25991;DHT22;13779;-33.886;151.198;2022-08-01T13:09:08;13.10;99.90
25991;DHT22;13779;-33.886;151.198;2022-08-01T13:11:41;13.10;99.90
25991;DHT22;13779;-33.886;151.198;2022-08-01T13:14:29;13.10;99.90
25991;DHT22;13779;-33.886;151.198;2022-08-01T13:17:00;13.10;99.90
25991;DHT22;13779;-33.886;151.198;2022-08-01T13:19:43;13.10;99.90
25991;DHT22;13779;-33.886;151.198;2022-08-01T13:22:14;13.10;99.90
25991;DHT22;13779;-33.886;151.198;2022-08-01T13:24:45;13.20;99.90
25991;DHT22;13779;-33.886;151.198;2022-08-01T13:27:21;13.20;99.90
25991;DHT22;13779;-33.886;151.198;2022-08-01T13:30:11;13.20;99.90
25991;DHT22;13779;-33.886;151.198;2022-08-01T13:32:43;13.00;99.90
25991;DHT22;13779;-33.886;151.198;2022-08-01T13:35:14;13.10;99.90
25991;DHT22;13779;-33.886;151.198;2022-08-01T13:37:45;13.10;99.90
25991;DHT22;13779;-33.886;151.198;2022-08-01T13:40:24;13.10;99.90
25991;DHT22;13779;-33.886;151.198;2022-08-01T13:42:55;13.10;99.90
25991;DHT22;13779;-33.886;151.198;2022-08-01T13:45:26;12.90;99.90
25991;DHT22;13779;-33.886;151.198;2022-08-01T13:47:56;13.00;99.90
25991;DHT22;13779;-33.886;151.198;2022-08-01T13:50:31;12.80;99.90
25991;DHT22;13779;-33.886;151.198;2022-08-01T13:53:01;12.70;99.90
25991;DHT22;13779;-33.886;151.198;2022-08-01T13:55:32;12.70;99.90
25991;DHT22;13779;-33.886;151.198;2022-08-01T13:58:02;12.70;99.90
25991;DHT22;13779;-33.886;151.198;2022-08-01T14:00:33;12.60;99.90
25991;DHT22;13779;-33.886;151.198;2022-08-01T14:03:03;12.40;99.90
25991;DHT22;13779;-33.886;151.198;2022-08-01T14:05:33;12.30;99.90
25991;DHT22;13779;-33.886;151.198;2022-08-01T14:08:03;12.30;99.90
25991;DHT22;13779;-33.886;151.198;2022-08-01T14:10:33;12.50;99.90
25991;DHT22;13779;-33.886;151.198;2022-08-01T14:13:04;12.50;99.90
25991;DHT22;13779;-33.886;151.198;2022-08-01T14:15:38;12.40;99.90
25991;DHT22;13779;-33.886;151.198;2022-08-01T14:18:08;12.30;99.90
25991;DHT22;13779;-33.886;151.198;2022-08-01T14:20:39;12.40;99.90
25991;DHT22;13779;-33.886;151.198;2022-08-01T14:23:10;12.40;99.90
25991;DHT22;13779;-33.886;151.198;2022-08-01T14:25:41;12.20;99.90
25991;DHT22;13779;-33.886;151.198;2022-08-01T14:28:25;12.20;99.90
25991;DHT22;13779;-33.886;151.198;2022-08-01T14:30:57;12.10;99.90
25991;DHT22;13779;-33.886;151.198;2022-08-01T14:33:28;12.00;99.90
25991;DHT22;13779;-33.886;151.198;2022-08-01T14:35:58;12.10;99.90
25991;DHT22;13779;-33.886;151.198;2022-08-01T14:38:33;12.10;99.90
25991;DHT22;13779;-33.886;151.198;2022-08-01T14:41:03;12.10;99.90
25991;DHT22;13779;-33.886;151.198;2022-08-01T14:43:33;12.00;99.90
25991;DHT22;13779;-33.886;151.198;2022-08-01T14:46:03;12.10;99.90
25991;DHT22;13779;-33.886;151.198;2022-08-01T14:48:34;12.00;99.90
25991;DHT22;13779;-33.886;151.198;2022-08-01T14:51:04;12.10;99.90
25991;DHT22;13779;-33.886;151.198;2022-08-01T14:53:36;12.10;99.90
25991;DHT22;13779;-33.886;151.198;2022-08-01T14:56:07;12.20;99.90
25991;DHT22;13779;-33.886;151.198;2022-08-01T14:58:37;12.10;99.90
25991;DHT22;13779;-33.886;151.198;2022-08-01T15:01:08;12.20;99.90
25991;DHT22;13779;-33.886;151.198;2022-08-01T15:03:39;12.10;99.90
25991;DHT22;13779;-33.886;151.198;2022-08-01T15:06:10;12.10;99.90
25991;DHT22;13779;-33.886;151.198;2022-08-01T15:08:41;12.10;99.90
25991;DHT22;13779;-33.886;151.198;2022-08-01T15:11:12;12.10;99.90
25991;DHT22;13779;-33.886;151.198;2022-08-01T15:13:43;12.00;99.90
25991;DHT22;13779;-33.886;151.198;2022-08-01T15:16:13;12.00;99.90
25991;DHT22;13779;-33.886;151.198;2022-08-01T15:18:44;12.00;99.90
25991;DHT22;13779;-33.886;151.198;2022-08-01T15:21:14;11.90;99.90
25991;DHT22;13779;-33.886;151.198;2022-08-01T15:24:05;11.80;99.90
25991;DHT22;13779;-33.886;151.198;2022-08-01T15:26:36;11.80;99.90
25991;DHT22;13779;-33.886;151.198;2022-08-01T15:29:07;11.90;99.90
25991;DHT22;13779;-33.886;151.198;2022-08-01T15:31:37;12.00;99.90
25991;DHT22;13779;-33.886;151.198;2022-08-01T15:34:07;12.00;99.90
25991;DHT22;13779;-33.886;151.198;2022-08-01T15:36:38;12.10;99.90
25991;DHT22;13779;-33.886;151.198;2022-08-01T15:39:10;12.10;99.90
25991;DHT22;13779;-33.886;151.198;2022-08-01T15:41:41;12.20;99.90
25991;DHT22;13779;-33.886;151.198;2022-08-01T15:44:12;12.10;99.90
25991;DHT22;13779;-33.886;151.198;2022-08-01T15:46:42;12.00;99.90
25991;DHT22;13779;-33.886;151.198;2022-08-01T15:49:13;11.90;99.90
25991;DHT22;13779;-33.886;151.198;2022-08-01T15:51:44;11.80;99.90
25991;DHT22;13779;-33.886;151.198;2022-08-01T15:54:15;11.70;99.90
25991;DHT22;13779;-33.886;151.198;2022-08-01T15:56:45;11.80;99.90
25991;DHT22;13779;-33.886;151.198;2022-08-01T15:59:16;11.80;99.90